Wittman Regional Airport
KOSH : rendu visible

Aérodrome :











RETROUVEZ-NOUS SUR...

 
LOGIN :

S'inscrire | Disclaimer

   EN    FR    IT 

 









Légende :    VFR   VFR Marginal   IFR   IFR Intensif   IFR Très Intensif
Visi : 
Plafond : 
>= 8 km
>= 3000ft
5 à 8 km
1000 à 3000 ft
1500m à 5 km
500 à 1000 ft
800 à 1500m
200 à 500 ft
< 800m
< 200 ft
Symboles :   Orages  Brouillard  Fortes neiges  Fortes précipitations  Vent > 20 kt






- Altitude de l'aérodrome : 808 ft
- Code IATA : OSH


KOSH - Wittman Regional

DERNIER METAR :
  • 231753Z 21007KT 10SM CLR 06/M02 A2983 RMK AO2 SLP109 T00561022 10056 21006 58001

METARs EXPIRÉS :
  • 231653Z 21008KT 10SM CLR 04/M02 A2983 RMK AO2 SLP111 T00441022
  • 231553Z 25007KT 10SM CLR 03/M02 A2984 RMK AO2 SLP114 T00331017

Prévision TAF périmée.



MET'MAP, la Météo Aéronautique d'un coup d'oeil ! - Copyright ORBIFLY Décembre 2007 - Disclaimer

ORBIFLY MET'MAP TEAM :

Programmation & Développement : Alexandra Zaïnal
Sur une idée originale de : Baudouin d'Aumeries
Assistance à la programmation : Marc-Olivier Méhu
Soutien technique & logistique : Manuel Goepfert

Contact : metmap@orbifly.com




SOURCES & CREDITS :

   NOAA       Earth
Advisory